createdAt,value
2022-09-09T00:01:40.009Z,99475.47
2022-09-09T00:04:34.539Z,99456.91
2022-09-09T00:07:42.077Z,99461.75
2022-09-09T00:10:31.826Z,99456.81
2022-09-09T00:13:37.739Z,99454.31
2022-09-09T00:16:17.495Z,99446.59
2022-09-09T00:19:29.106Z,99452.66
2022-09-09T00:22:18.437Z,99439.28
2022-09-09T00:24:56.747Z,99443.66
2022-09-09T00:27:51.148Z,99456.75
2022-09-09T00:30:40.479Z,99447.19
2022-09-09T00:33:39.955Z,99456.97
2022-09-09T00:36:26.452Z,99453.97
2022-09-09T00:39:06.391Z,99450.97
2022-09-09T00:41:59.915Z,99457.22
2022-09-09T00:44:54.812Z,99464.31
2022-09-09T00:47:54.836Z,99464.53
2022-09-09T00:50:45.974Z,99465.63
2022-09-09T00:53:32.505Z,99463.72
2022-09-09T00:56:46.043Z,99465.38
2022-09-09T00:59:44.331Z,99475.44
2022-09-09T01:02:36.570Z,99475.97
2022-09-09T01:05:32.884Z,99471.09
2022-09-09T01:08:24.225Z,99474.03
2022-09-09T01:11:05.448Z,99464.19
2022-09-09T01:13:58.054Z,99466.34
2022-09-09T01:16:48.557Z,99473.72
2022-09-09T01:19:54.587Z,99482.16
2022-09-09T01:23:11.620Z,99487.28
2022-09-09T01:26:29.203Z,99493.59
2022-09-09T01:29:17.136Z,99500.44
2022-09-09T01:32:25.445Z,99515.31
2022-09-09T01:35:17.456Z,99513.16
2022-09-09T01:37:53.450Z,99505.00
2022-09-09T01:40:31.400Z,99500.06
2022-09-09T01:43:10.722Z,99500.34
2022-09-09T01:45:55.310Z,99493.56
2022-09-09T01:48:39.314Z,99483.16
2022-09-09T01:51:18.463Z,99494.25
2022-09-09T01:54:00.562Z,99503.25
2022-09-09T01:57:01.981Z,99498.66
2022-09-09T02:00:05.157Z,99499.97
2022-09-09T02:03:15.781Z,99503.75
2022-09-09T02:06:22.413Z,99496.69
2022-09-09T02:09:08.872Z,99499.44
2022-09-09T02:11:55.604Z,99498.34
2022-09-09T02:14:45.175Z,99499.97
2022-09-09T02:17:31.429Z,99497.19
2022-09-09T02:20:25.352Z,99502.38
2022-09-09T02:23:15.757Z,99509.44
2022-09-09T02:25:59.199Z,99517.31
2022-09-09T02:28:40.224Z,99517.63
2022-09-09T02:31:31.709Z,99512.09
2022-09-09T02:34:25.356Z,99510.28
2022-09-09T02:37:03.664Z,99514.25
2022-09-09T02:39:45.533Z,99511.19
2022-09-09T02:42:30.577Z,99510.06
2022-09-09T02:45:11.551Z,99513.88
2022-09-09T02:48:01.256Z,99514.91
2022-09-09T02:51:06.200Z,99507.81
2022-09-09T02:54:18.812Z,99517.59
2022-09-09T03:00:52.535Z,99510.25
2022-09-09T03:03:34.293Z,99506.66
2022-09-09T03:06:26.173Z,99510.72
2022-09-09T03:09:17.620Z,99506.91
2022-09-09T03:11:51.195Z,99500.06
2022-09-09T03:14:39.253Z,99500.03
2022-09-09T03:17:19.956Z,99501.13
2022-09-09T03:20:03.377Z,99505.16
2022-09-09T03:22:45.032Z,99506.00
2022-09-09T03:25:29.808Z,99502.69
2022-09-09T03:28:10.751Z,99510.63
2022-09-09T03:30:54.536Z,99513.53
2022-09-09T03:33:37.513Z,99516.78
2022-09-09T03:36:19.728Z,99511.84
2022-09-09T03:39:01.703Z,99513.63
2022-09-09T03:41:40.351Z,99516.66
2022-09-09T03:44:31.898Z,99514.19
2022-09-09T03:47:24.930Z,99521.84
2022-09-09T03:50:14.175Z,99523.22
2022-09-09T03:53:04.447Z,99523.81
2022-09-09T03:55:53.231Z,99537.41
2022-09-09T03:58:47.377Z,99540.13
2022-09-09T04:01:29.476Z,99534.13
2022-09-09T04:04:10.764Z,99535.66
2022-09-09T04:06:49.538Z,99533.47
2022-09-09T04:09:30.404Z,99540.59
2022-09-09T04:12:11.972Z,99541.63
2022-09-09T04:14:53.480Z,99538.91
2022-09-09T04:17:42.119Z,99535.38
2022-09-09T04:20:20.487Z,99535.97
2022-09-09T04:23:04.671Z,99536.78
2022-09-09T04:25:47.975Z,99545.78
2022-09-09T04:28:30.026Z,99537.88
2022-09-09T04:31:24.658Z,99552.00
2022-09-09T04:34:11.587Z,99550.34
2022-09-09T04:36:56.451Z,99553.84
2022-09-09T04:39:42.295Z,99562.25
2022-09-09T04:42:23.357Z,99553.50
2022-09-09T04:45:13.879Z,99546.31
2022-09-09T04:47:55.364Z,99551.19
2022-09-09T04:50:39.679Z,99547.94
2022-09-09T04:53:29.952Z,99554.53
2022-09-09T04:56:19.447Z,99549.09
2022-09-09T04:59:08.170Z,99552.34
2022-09-09T05:02:04.324Z,99549.47
2022-09-09T05:04:47.634Z,99555.34
2022-09-09T05:07:41.329Z,99545.00
2022-09-09T05:10:15.940Z,99545.44
2022-09-09T05:13:07.582Z,99543.78
2022-09-09T05:15:54.687Z,99538.66
2022-09-09T05:18:30.979Z,99547.00
2022-09-09T05:21:21.354Z,99547.00
2022-09-09T05:24:02.585Z,99541.34
2022-09-09T05:26:54.232Z,99546.59
2022-09-09T05:29:34.559Z,99551.91
2022-09-09T05:32:15.620Z,99553.63
2022-09-09T05:35:00.471Z,99546.47
2022-09-09T05:37:44.006Z,99553.97
2022-09-09T05:40:27.978Z,99561.34
2022-09-09T05:43:09.030Z,99561.75
2022-09-09T05:45:48.716Z,99560.41
2022-09-09T05:48:47.364Z,99560.75
2022-09-09T05:51:25.261Z,99562.22
2022-09-09T05:54:11.693Z,99556.28
2022-09-09T05:56:52.421Z,99556.13
2022-09-09T05:59:30.639Z,99555.56
2022-09-09T06:02:06.777Z,99560.06
2022-09-09T06:04:47.544Z,99551.41
2022-09-09T06:07:37.010Z,99549.53
2022-09-09T06:10:07.418Z,99549.88
2022-09-09T06:12:45.417Z,99556.72
2022-09-09T06:15:24.540Z,99554.81
2022-09-09T06:18:02.443Z,99548.28
2022-09-09T06:23:32.327Z,99552.09
2022-09-09T06:26:23.835Z,99562.22
2022-09-09T06:29:04.661Z,99564.13
2022-09-09T06:31:38.383Z,99560.53
2022-09-09T06:34:26.543Z,99557.25
2022-09-09T06:37:09.544Z,99567.63
2022-09-09T06:39:55.765Z,99566.22
2022-09-09T06:42:46.723Z,99576.28
2022-09-09T06:45:39.170Z,99580.53
2022-09-09T06:48:15.249Z,99583.25
2022-09-09T06:50:53.446Z,99573.94
2022-09-09T06:53:32.259Z,99572.56
2022-09-09T06:56:21.441Z,99587.22
2022-09-09T06:59:05.190Z,99582.25
2022-09-09T07:01:42.458Z,99577.91
2022-09-09T07:04:20.165Z,99581.16
2022-09-09T07:07:09.685Z,99579.41
2022-09-09T07:09:49.550Z,99577.84
2022-09-09T07:12:28.328Z,99584.34
2022-09-09T07:15:06.160Z,99586.53
2022-09-09T07:17:41.748Z,99586.38
2022-09-09T07:20:17.194Z,99591.00
2022-09-09T07:22:55.711Z,99593.53
2022-09-09T07:25:31.246Z,99586.16
2022-09-09T07:28:04.495Z,99591.28
2022-09-09T07:30:40.258Z,99592.09
2022-09-09T07:33:13.429Z,99586.75
2022-09-09T07:35:52.340Z,99597.94
2022-09-09T07:38:29.629Z,99591.69
2022-09-09T07:41:14.645Z,99596.34
2022-09-09T07:43:53.230Z,99596.94
2022-09-09T07:46:31.916Z,99586.09
2022-09-09T07:49:08.238Z,99597.41
2022-09-09T07:51:45.423Z,99596.75
2022-09-09T07:54:24.857Z,99604.22
2022-09-09T07:57:04.986Z,99611.66
2022-09-09T07:59:39.586Z,99615.22
2022-09-09T08:02:17.781Z,99614.50
2022-09-09T08:04:50.375Z,99614.72
2022-09-09T08:07:32.198Z,99612.94
2022-09-09T08:10:05.209Z,99611.72
2022-09-09T08:13:01.511Z,99606.13
2022-09-09T08:15:43.301Z,99611.41
2022-09-09T08:18:15.848Z,99604.25
2022-09-09T08:20:50.021Z,99609.03
2022-09-09T08:23:33.964Z,99603.94
2022-09-09T08:26:36.417Z,99604.78
2022-09-09T08:29:11.284Z,99609.88
2022-09-09T08:31:49.293Z,99614.88
2022-09-09T08:34:26.621Z,99607.34
2022-09-09T08:36:58.627Z,99607.63
2022-09-09T08:39:43.045Z,99599.41
2022-09-09T08:42:55.802Z,99603.50
2022-09-09T08:45:38.696Z,99599.84
2022-09-09T08:48:42.870Z,99589.84
2022-09-09T08:51:14.945Z,99599.59
2022-09-09T08:53:50.487Z,99584.91
2022-09-09T08:56:25.519Z,99591.88
2022-09-09T08:59:09.836Z,99600.69
2022-09-09T09:02:04.590Z,99595.78
2022-09-09T09:05:21.694Z,99601.28
2022-09-09T09:08:12.988Z,99600.38
2022-09-09T09:10:55.352Z,99601.06
2022-09-09T09:13:43.979Z,99606.19
2022-09-09T09:16:28.712Z,99599.84
2022-09-09T09:19:04.784Z,99606.06
2022-09-09T09:22:04.716Z,99598.16
2022-09-09T09:24:51.896Z,99606.38
2022-09-09T09:27:40.653Z,99607.72
2022-09-09T09:30:29.988Z,99607.41
2022-09-09T09:33:55.681Z,99596.94
2022-09-09T09:36:54.596Z,99601.78
2022-09-09T09:42:35.985Z,99597.81
2022-09-09T09:45:46.777Z,99587.69
2022-09-09T09:48:27.943Z,99588.38
2022-09-09T09:51:21.006Z,99584.16
2022-09-09T09:53:54.957Z,99584.16
2022-09-09T09:56:33.630Z,99573.34
2022-09-09T09:59:13.303Z,99566.88
2022-09-09T10:02:28.361Z,99573.47
2022-09-09T10:05:15.514Z,99579.13
2022-09-09T10:08:13.536Z,99587.88
2022-09-09T10:11:20.676Z,99585.19
2022-09-09T10:13:59.750Z,99588.94
2022-09-09T10:17:04.101Z,99586.44
2022-09-09T10:19:54.870Z,99583.84
2022-09-09T10:22:37.654Z,99580.75
2022-09-09T10:25:46.814Z,99580.13
2022-09-09T10:28:33.153Z,99585.16
2022-09-09T10:31:32.020Z,99578.22
2022-09-09T10:34:41.528Z,99577.84
2022-09-09T10:37:27.485Z,99585.88
2022-09-09T10:40:22.004Z,99582.16
2022-09-09T10:42:49.362Z,99584.25
2022-09-09T10:45:34.887Z,99579.47
2022-09-09T10:48:24.893Z,99587.56
2022-09-09T10:51:32.447Z,99581.75
2022-09-09T10:54:44.610Z,99582.06
2022-09-09T10:57:31.997Z,99576.81
2022-09-09T11:00:20.732Z,99584.63
2022-09-09T11:02:59.485Z,99582.31
2022-09-09T11:05:46.641Z,99584.16
2022-09-09T11:08:32.884Z,99582.50
2022-09-09T11:11:19.063Z,99576.84
2022-09-09T11:14:21.493Z,99580.72
2022-09-09T11:17:24.640Z,99579.09
2022-09-09T11:19:59.662Z,99579.41
2022-09-09T11:22:33.467Z,99583.66
2022-09-09T11:25:11.885Z,99571.09
2022-09-09T11:28:02.753Z,99580.41
2022-09-09T11:30:56.224Z,99571.78
2022-09-09T11:33:45.728Z,99561.66
2022-09-09T11:36:36.579Z,99562.13
2022-09-09T11:39:42.011Z,99564.94
2022-09-09T11:42:19.475Z,99560.88
2022-09-09T11:44:56.130Z,99564.94
2022-09-09T11:47:35.467Z,99566.88
2022-09-09T11:50:35.420Z,99564.16
2022-09-09T11:53:24.066Z,99563.16
2022-09-09T11:56:14.716Z,99552.66
2022-09-09T11:59:06.554Z,99554.53
2022-09-09T12:02:03.160Z,99539.00
2022-09-09T12:04:40.954Z,99548.56
2022-09-09T12:07:26.670Z,99530.72
2022-09-09T12:10:04.783Z,99535.44
2022-09-09T12:12:41.734Z,99532.44
2022-09-09T12:15:13.714Z,99541.06
2022-09-09T12:18:00.128Z,99523.47
2022-09-09T12:21:07.467Z,99524.41
2022-09-09T12:23:49.793Z,99532.84
2022-09-09T12:26:41.127Z,99533.34
2022-09-09T12:29:30.561Z,99529.47
2022-09-09T12:32:14.975Z,99539.25
2022-09-09T12:34:57.624Z,99536.56
2022-09-09T12:37:39.829Z,99542.34
2022-09-09T12:40:40.295Z,99522.25
2022-09-09T12:43:27.346Z,99526.50
2022-09-09T12:46:36.667Z,99516.91
2022-09-09T12:49:40.377Z,99516.91
2022-09-09T12:52:36.355Z,99509.13
2022-09-09T12:55:15.169Z,99503.91
2022-09-09T12:57:45.395Z,99512.31
2022-09-09T13:00:24.008Z,99508.53
2022-09-09T13:03:20.636Z,99501.06
2022-09-09T13:05:48.213Z,99501.88
2022-09-09T13:08:31.196Z,99498.81
2022-09-09T13:11:10.693Z,99503.25
2022-09-09T13:13:56.895Z,99496.22
2022-09-09T13:16:42.586Z,99489.16
2022-09-09T13:19:23.506Z,99486.66
2022-09-09T13:21:53.743Z,99474.09
2022-09-09T13:24:35.588Z,99476.06
2022-09-09T13:27:29.649Z,99471.03
2022-09-09T13:29:58.989Z,99463.16
2022-09-09T13:32:37.364Z,99466.63
2022-09-09T13:35:25.922Z,99457.16
2022-09-09T13:37:57.443Z,99457.13
2022-09-09T13:40:33.024Z,99454.56
2022-09-09T13:43:17.148Z,99448.19
2022-09-09T13:46:02.623Z,99449.25
2022-09-09T13:48:31.110Z,99460.25
2022-09-09T13:51:06.406Z,99463.22
2022-09-09T13:53:42.492Z,99467.16
2022-09-09T13:56:26.548Z,99465.19
2022-09-09T13:59:14.628Z,99460.16
2022-09-09T14:01:43.469Z,99457.50
2022-09-09T14:04:10.591Z,99457.28
2022-09-09T14:06:46.535Z,99455.44
2022-09-09T14:09:20.836Z,99456.78
2022-09-09T14:11:52.769Z,99453.25
2022-09-09T14:14:33.897Z,99444.44
2022-09-09T14:17:17.584Z,99446.06
2022-09-09T14:19:48.575Z,99437.91
2022-09-09T14:22:24.807Z,99437.28
2022-09-09T14:25:07.245Z,99430.38
2022-09-09T14:27:45.639Z,99434.31
2022-09-09T14:30:20.714Z,99424.47
2022-09-09T14:32:49.264Z,99417.97
2022-09-09T14:35:29.684Z,99419.31
2022-09-09T14:38:07.740Z,99413.91
2022-09-09T14:41:02.200Z,99418.00
2022-09-09T14:43:37.789Z,99423.28
2022-09-09T14:46:12.871Z,99418.66
2022-09-09T14:48:46.420Z,99419.66
2022-09-09T14:51:29.892Z,99414.47
2022-09-09T14:54:06.192Z,99416.69
2022-09-09T14:56:39.799Z,99409.72
2022-09-09T14:59:23.018Z,99412.69
2022-09-09T15:01:50.125Z,99413.38
2022-09-09T15:04:29.496Z,99413.25
2022-09-09T15:07:02.845Z,99416.53
2022-09-09T15:09:33.116Z,99414.13
2022-09-09T15:12:01.931Z,99406.97
2022-09-09T15:14:28.954Z,99413.22
2022-09-09T15:17:06.493Z,99422.19
2022-09-09T15:19:34.628Z,99426.75
2022-09-09T15:22:15.362Z,99428.59
2022-09-09T15:24:48.387Z,99429.59
2022-09-09T15:27:21.877Z,99428.47
2022-09-09T15:29:51.480Z,99431.56
2022-09-09T15:32:20.674Z,99423.41
2022-09-09T15:35:06.992Z,99429.78
2022-09-09T15:37:36.793Z,99433.38
2022-09-09T15:40:12.870Z,99433.06
2022-09-09T15:42:53.204Z,99432.25
2022-09-09T15:45:29.544Z,99429.16
2022-09-09T15:47:59.040Z,99427.22
2022-09-09T15:50:25.989Z,99428.88
2022-09-09T15:52:54.050Z,99423.47
2022-09-09T15:55:25.457Z,99421.03
2022-09-09T15:57:54.543Z,99416.66
2022-09-09T16:00:28.393Z,99413.56
2022-09-09T16:03:06.090Z,99425.28
2022-09-09T16:05:43.297Z,99430.59
2022-09-09T16:08:16.768Z,99430.44
2022-09-09T16:10:47.049Z,99429.84
2022-09-09T16:13:25.351Z,99445.06
2022-09-09T16:19:02.617Z,99430.13
2022-09-09T16:21:44.341Z,99439.28
2022-09-09T16:24:19.392Z,99433.22
2022-09-09T16:26:52.745Z,99436.19
2022-09-09T16:29:28.523Z,99439.03
2022-09-09T16:32:10.178Z,99436.41
2022-09-09T16:34:41.693Z,99444.41
2022-09-09T16:37:20.414Z,99440.91
2022-09-09T16:39:47.435Z,99440.59
2022-09-09T16:42:19.330Z,99451.75
2022-09-09T16:44:54.842Z,99446.75
2022-09-09T16:47:40.163Z,99446.16
2022-09-09T16:50:21.567Z,99439.84
2022-09-09T16:52:48.820Z,99440.66
2022-09-09T16:55:21.630Z,99439.44
2022-09-09T16:57:57.118Z,99439.00
2022-09-09T17:00:34.713Z,99443.59
2022-09-09T17:03:03.048Z,99438.38
2022-09-09T17:05:36.545Z,99439.59
2022-09-09T17:08:09.460Z,99438.34
2022-09-09T17:10:49.580Z,99444.03
2022-09-09T17:13:27.928Z,99435.94
2022-09-09T17:16:03.011Z,99454.25
2022-09-09T17:18:32.756Z,99457.41
2022-09-09T17:21:15.153Z,99451.84
2022-09-09T17:23:49.538Z,99449.56
2022-09-09T17:26:28.978Z,99453.56
2022-09-09T17:29:10.312Z,99461.97
2022-09-09T17:31:42.574Z,99457.69
2022-09-09T17:34:13.371Z,99452.66
2022-09-09T17:36:40.739Z,99461.25
2022-09-09T17:39:19.221Z,99460.28
2022-09-09T17:41:54.624Z,99459.50
2022-09-09T17:44:39.431Z,99459.63
2022-09-09T17:47:29.960Z,99467.47
2022-09-09T17:50:08.402Z,99470.94
2022-09-09T17:52:43.733Z,99473.50
2022-09-09T17:55:19.344Z,99466.44
2022-09-09T17:57:55.787Z,99475.28
2022-09-09T18:00:25.454Z,99478.38
2022-09-09T18:03:07.424Z,99468.25
2022-09-09T18:05:42.800Z,99465.41
2022-09-09T18:08:09.836Z,99471.25
2022-09-09T18:10:54.100Z,99472.31
2022-09-09T18:13:40.142Z,99475.34
2022-09-09T18:16:18.821Z,99475.41
2022-09-09T18:21:44.654Z,99488.88
2022-09-09T18:24:17.789Z,99490.25
2022-09-09T18:26:53.626Z,99490.03
2022-09-09T18:29:31.350Z,99495.56
2022-09-09T18:32:11.171Z,99487.53
2022-09-09T18:34:47.037Z,99490.34
2022-09-09T18:37:19.382Z,99479.19
2022-09-09T18:39:46.305Z,99482.34
2022-09-09T18:42:19.346Z,99477.84
2022-09-09T18:44:54.850Z,99481.03
2022-09-09T18:47:30.239Z,99488.69
2022-09-09T18:50:02.577Z,99490.78
2022-09-09T18:52:52.635Z,99473.78
2022-09-09T18:55:19.556Z,99479.25
2022-09-09T18:57:58.838Z,99485.72
2022-09-09T19:00:29.212Z,99495.38
2022-09-09T19:03:04.601Z,99502.56
2022-09-09T19:05:42.554Z,99496.25
2022-09-09T19:08:15.428Z,99496.25
2022-09-09T19:10:42.388Z,99489.38
2022-09-09T19:13:15.569Z,99494.56
2022-09-09T19:15:57.510Z,99481.13
2022-09-09T19:18:33.800Z,99479.25
2022-09-09T19:21:23.182Z,99464.94
2022-09-09T19:24:05.585Z,99467.91
2022-09-09T19:26:42.501Z,99474.69
2022-09-09T19:29:19.549Z,99473.13
2022-09-09T19:34:59.906Z,99477.50
2022-09-09T19:37:42.630Z,99478.91
2022-09-09T19:40:17.977Z,99473.19
2022-09-09T19:42:45.073Z,99474.75
2022-09-09T19:45:22.710Z,99466.56
2022-09-09T19:48:00.631Z,99476.41
2022-09-09T19:50:39.707Z,99464.91
2022-09-09T19:53:20.970Z,99474.13
2022-09-09T19:55:56.703Z,99474.69
2022-09-09T19:58:24.271Z,99476.47
2022-09-09T20:01:11.443Z,99470.16
2022-09-09T20:03:48.384Z,99472.38
2022-09-09T20:06:17.473Z,99465.53
2022-09-09T20:08:47.506Z,99470.50
2022-09-09T20:11:25.745Z,99466.41
2022-09-09T20:13:58.744Z,99476.03
2022-09-09T20:16:45.737Z,99479.00
2022-09-09T20:19:30.605Z,99484.50
2022-09-09T20:22:03.078Z,99485.34
2022-09-09T20:24:44.646Z,99487.66
2022-09-09T20:27:13.176Z,99477.75
2022-09-09T20:29:40.252Z,99477.53
2022-09-09T20:32:13.349Z,99482.22
2022-09-09T20:34:54.903Z,99488.28
2022-09-09T20:37:24.782Z,99484.47
2022-09-09T20:40:01.199Z,99485.50
2022-09-09T20:42:35.197Z,99483.28
2022-09-09T20:45:07.647Z,99487.34
2022-09-09T20:47:44.283Z,99495.44
2022-09-09T20:50:18.085Z,99492.38
2022-09-09T20:52:53.338Z,99488.28
2022-09-09T20:55:35.217Z,99485.56
2022-09-09T20:58:08.246Z,99484.47
2022-09-09T21:00:35.335Z,99487.16
2022-09-09T21:03:09.381Z,99483.66
2022-09-09T21:05:41.010Z,99478.97
2022-09-09T21:08:16.077Z,99473.22
2022-09-09T21:10:58.468Z,99473.81
2022-09-09T21:13:35.763Z,99472.78
2022-09-09T21:16:14.296Z,99464.31
2022-09-09T21:18:48.578Z,99467.13
2022-09-09T21:21:24.454Z,99466.03
2022-09-09T21:24:05.157Z,99462.19
2022-09-09T21:26:43.217Z,99464.13
2022-09-09T21:29:18.373Z,99466.69
2022-09-09T21:31:59.662Z,99463.50
2022-09-09T21:34:46.279Z,99462.44
2022-09-09T21:37:19.250Z,99470.41
2022-09-09T21:40:00.537Z,99460.00
2022-09-09T21:42:35.624Z,99463.28
2022-09-09T21:45:10.486Z,99463.59
2022-09-09T21:47:48.933Z,99465.34
2022-09-09T21:50:28.668Z,99459.00
2022-09-09T21:53:23.037Z,99451.59
2022-09-09T21:56:00.494Z,99456.31
2022-09-09T21:58:39.909Z,99462.53
2022-09-09T22:01:18.584Z,99462.22
2022-09-09T22:03:57.655Z,99462.06
2022-09-09T22:06:30.766Z,99461.81
2022-09-09T22:09:07.771Z,99468.91
2022-09-09T22:11:46.499Z,99458.81
2022-09-09T22:14:24.402Z,99450.34
2022-09-09T22:17:03.503Z,99444.56
2022-09-09T22:19:45.778Z,99446.25
2022-09-09T22:22:21.493Z,99444.09
2022-09-09T22:24:56.946Z,99443.25
2022-09-09T22:27:26.962Z,99442.97
2022-09-09T22:30:02.241Z,99443.72
2022-09-09T22:32:40.455Z,99443.44
2022-09-09T22:35:23.543Z,99435.25
2022-09-09T22:38:02.268Z,99440.25
2022-09-09T22:40:42.490Z,99443.53
2022-09-09T22:43:19.534Z,99437.25
2022-09-09T22:45:54.373Z,99440.28
2022-09-09T22:48:29.809Z,99441.13
2022-09-09T22:51:14.665Z,99445.81
2022-09-09T22:54:00.277Z,99444.69
2022-09-09T22:56:35.809Z,99445.81
2022-09-09T22:59:14.033Z,99439.28
2022-09-09T23:01:54.168Z,99435.75
2022-09-09T23:04:39.393Z,99431.94
2022-09-09T23:07:15.151Z,99421.78
2022-09-09T23:09:53.741Z,99440.38
2022-09-09T23:12:30.249Z,99453.25
2022-09-09T23:15:10.310Z,99438.75
2022-09-09T23:17:49.339Z,99448.06
2022-09-09T23:20:29.043Z,99437.41
2022-09-09T23:23:04.495Z,99438.78
2022-09-09T23:25:44.215Z,99431.09
2022-09-09T23:28:19.539Z,99424.81
2022-09-09T23:30:57.233Z,99422.38
2022-09-09T23:33:35.040Z,99418.28
2022-09-09T23:36:16.697Z,99424.81
2022-09-09T23:39:01.268Z,99418.00
2022-09-09T23:41:37.153Z,99423.78
2022-09-09T23:44:15.580Z,99430.09
2022-09-09T23:47:02.880Z,99423.25
2022-09-09T23:49:39.404Z,99432.22
2022-09-09T23:52:09.479Z,99437.72
2022-09-09T23:54:44.657Z,99436.06
2022-09-09T23:57:27.881Z,99434.72
